createdAt,value
2019-02-08T00:04:07.529Z,1002
2019-02-08T00:09:35.433Z,1002
2019-02-08T00:15:03.541Z,1002
2019-02-08T00:20:31.388Z,1002
2019-02-08T00:25:59.308Z,1002
2019-02-08T00:31:28.198Z,1002
2019-02-08T00:36:56.046Z,1002
2019-02-08T00:42:23.944Z,1003
2019-02-08T00:47:52.933Z,1003
2019-02-08T00:53:20.845Z,1003
2019-02-08T00:58:48.672Z,1003
2019-02-08T01:04:22.618Z,1003
2019-02-08T01:09:45.556Z,1003
2019-02-08T01:15:19.507Z,1003
2019-02-08T01:20:42.433Z,1003
2019-02-08T01:26:10.355Z,1003
2019-02-08T01:31:39.344Z,1003
2019-02-08T01:37:07.151Z,1003
2019-02-08T01:42:35.987Z,1003
2019-02-08T01:48:03.923Z,1003
2019-02-08T01:53:37.806Z,1003
2019-02-08T01:59:01.686Z,1003
2019-02-08T02:04:30.742Z,1003
2019-02-08T02:09:58.460Z,1003
2019-02-08T02:15:27.348Z,1003
2019-02-08T02:26:24.132Z,1003
2019-02-08T02:31:52.312Z,1003
2019-02-08T02:37:19.951Z,1003
2019-02-08T02:42:48.901Z,1003
2019-02-08T02:48:18.304Z,1004
2019-02-08T02:53:45.645Z,1004
2019-02-08T02:59:14.632Z,1004
2019-02-08T03:04:42.483Z,1004
2019-02-08T03:10:15.507Z,1004
2019-02-08T03:15:39.291Z,1004
2019-02-08T03:21:12.194Z,1004
2019-02-08T03:26:35.065Z,1004
2019-02-08T03:32:04.240Z,1004
2019-02-08T03:37:37.914Z,1004
2019-02-08T03:43:00.823Z,1004
2019-02-08T03:48:29.741Z,1004
2019-02-08T03:53:57.655Z,1004
2019-02-08T03:59:26.517Z,1004
2019-02-08T04:04:55.433Z,1004
2019-02-08T04:10:25.294Z,1004
2019-02-08T04:15:52.239Z,1004
2019-02-08T04:21:26.128Z,1004
2019-02-08T04:26:55.118Z,1004
2019-02-08T04:32:18.926Z,1004
2019-02-08T04:37:46.841Z,1004
2019-02-08T04:43:15.774Z,1004
2019-02-08T04:48:48.699Z,1004
2019-02-08T04:54:11.583Z,1005
2019-02-08T04:59:40.465Z,1005
2019-02-08T05:05:08.285Z,1005
2019-02-08T05:10:37.169Z,1005
2019-02-08T05:16:10.116Z,1004
2019-02-08T05:21:39.007Z,1004
2019-02-08T05:27:01.877Z,1005
2019-02-08T05:32:36.214Z,1005
2019-02-08T05:37:58.736Z,1005
2019-02-08T05:43:26.731Z,1005
2019-02-08T05:48:55.354Z,1004
2019-02-08T05:54:22.436Z,1004
2019-02-08T05:59:50.346Z,1005
2019-02-08T06:05:24.275Z,1005
2019-02-08T06:10:47.276Z,1005
2019-02-08T06:16:14.943Z,1005
2019-02-08T06:21:42.866Z,1005
2019-02-08T06:27:11.720Z,1005
2019-02-08T06:32:39.690Z,1005
2019-02-08T06:38:12.638Z,1005
2019-02-08T06:43:40.431Z,1005
2019-02-08T06:49:03.296Z,1005
2019-02-08T06:54:32.203Z,1005
2019-02-08T07:00:00.253Z,1005
2019-02-08T07:05:27.968Z,1005
2019-02-08T07:10:57.910Z,1005
2019-02-08T07:16:25.739Z,1005
2019-02-08T07:21:58.716Z,1005
2019-02-08T07:27:21.667Z,1005
2019-02-08T07:32:51.601Z,1005
2019-02-08T07:38:19.284Z,1005
2019-02-08T07:43:47.261Z,1005
2019-02-08T07:49:15.146Z,1005
2019-02-08T07:54:43.026Z,1005
2019-02-08T08:00:11.933Z,1005
2019-02-08T08:05:45.873Z,1005
2019-02-08T08:11:09.726Z,1005
2019-02-08T08:16:39.367Z,1005
2019-02-08T08:22:07.528Z,1005
2019-02-08T08:27:35.458Z,1005
2019-02-08T08:33:03.355Z,1005
2019-02-08T08:38:31.499Z,1005
2019-02-08T08:44:04.200Z,1005
2019-02-08T08:49:27.130Z,1005
2019-02-08T08:54:55.073Z,1005
2019-02-08T09:00:29.016Z,1005
2019-02-08T09:05:52.947Z,1005
2019-02-08T09:11:21.828Z,1005
2019-02-08T09:16:55.783Z,1005
2019-02-08T09:22:19.718Z,1005
2019-02-08T09:27:47.630Z,1005
2019-02-08T09:33:16.665Z,1005
2019-02-08T09:38:44.500Z,1005
2019-02-08T09:44:12.431Z,1005
2019-02-08T09:49:40.370Z,1005
2019-02-08T09:55:09.267Z,1005
2019-02-08T10:27:58.010Z,1005
2019-02-08T10:33:25.968Z,1005
2019-02-08T10:38:53.950Z,1004
2019-02-08T10:44:22.000Z,1004
2019-02-08T10:49:50.897Z,1004
2019-02-08T10:55:19.862Z,1004
2019-02-08T11:00:48.868Z,1004
2019-02-08T11:06:16.883Z,1004
2019-02-08T11:11:44.878Z,1004
2019-02-08T11:17:13.792Z,1004
2019-02-08T11:22:41.759Z,1004
2019-02-08T11:28:13.451Z,1004
2019-02-08T11:33:39.762Z,1004
2019-02-08T11:39:07.689Z,1004
2019-02-08T11:44:35.875Z,1004
2019-02-08T11:50:03.795Z,1004
2019-02-08T11:55:32.667Z,1004
2019-02-08T12:01:01.656Z,1004
2019-02-08T12:06:29.580Z,1003
2019-02-08T12:11:58.539Z,1003
2019-02-08T12:17:26.503Z,1003
2019-02-08T12:22:54.495Z,1003
2019-02-08T12:28:22.463Z,1003
2019-02-08T12:33:51.477Z,1003
2019-02-08T12:39:19.471Z,1003
2019-02-08T12:44:48.387Z,1003
2019-02-08T12:50:17.571Z,1003
2019-02-08T12:55:45.407Z,1003
2019-02-08T13:01:13.377Z,1003
2019-02-08T13:12:10.965Z,1003
2019-02-08T13:17:39.378Z,1002
2019-02-08T13:23:08.415Z,1002
2019-02-08T13:34:05.405Z,1002
2019-02-08T13:39:34.373Z,1002
2019-02-08T13:45:02.328Z,1002
2019-02-08T13:50:30.534Z,1002
2019-02-08T13:55:58.263Z,1002
2019-02-08T14:01:26.273Z,1002
2019-02-08T14:06:54.263Z,1002
2019-02-08T14:12:22.338Z,1002
2019-02-08T14:17:51.173Z,1002
2019-02-08T14:23:19.110Z,1002
2019-02-08T14:28:46.984Z,1002
2019-02-08T14:34:14.962Z,1002
2019-02-08T14:39:44.170Z,1002
2019-02-08T14:45:12.004Z,1001
2019-02-08T14:50:39.948Z,1001
2019-02-08T14:56:08.054Z,1001
2019-02-08T15:01:36.874Z,1001
2019-02-08T15:07:05.898Z,1001
2019-02-08T15:12:34.008Z,1001
2019-02-08T15:18:01.855Z,1001
2019-02-08T15:23:29.790Z,1001
2019-02-08T15:28:58.979Z,1001
2019-02-08T15:34:27.743Z,1001
2019-02-08T15:39:55.855Z,1001
2019-02-08T15:45:23.725Z,1001
2019-02-08T15:50:52.685Z,1001
2019-02-08T15:56:21.828Z,1000
2019-02-08T16:01:50.093Z,1000
2019-02-08T16:07:17.795Z,1000
2019-02-08T16:12:45.658Z,1000
2019-02-08T16:18:13.864Z,1000
2019-02-08T16:23:42.770Z,1000
2019-02-08T16:29:11.580Z,1000
2019-02-08T16:34:40.529Z,1000
2019-02-08T16:40:08.538Z,1000
2019-02-08T16:45:36.544Z,1000
2019-02-08T16:51:05.832Z,1000
2019-02-08T16:56:33.540Z,1000
2019-02-08T17:02:02.542Z,1000
2019-02-08T17:07:30.484Z,999
2019-02-08T17:12:59.595Z,999
2019-02-08T17:18:27.516Z,999
2019-02-08T17:23:56.412Z,999
2019-02-08T17:29:26.158Z,999
2019-02-08T17:34:54.403Z,999
2019-02-08T17:40:22.381Z,999
2019-02-08T17:45:51.376Z,999
2019-02-08T17:51:20.393Z,999
2019-02-08T17:56:48.308Z,999
2019-02-08T18:02:17.562Z,999
2019-02-08T18:07:46.484Z,999
2019-02-08T18:13:14.332Z,999
2019-02-08T18:18:43.274Z,998
2019-02-08T18:24:11.320Z,998
2019-02-08T18:29:40.334Z,998
2019-02-08T18:35:08.339Z,998
2019-02-08T18:40:39.651Z,998
2019-02-08T18:46:05.166Z,998
2019-02-08T18:51:33.377Z,998
2019-02-08T18:57:01.172Z,998
2019-02-08T19:02:29.259Z,998
2019-02-08T19:07:58.099Z,998
2019-02-08T19:13:27.115Z,998
2019-02-08T19:18:56.219Z,997
2019-02-08T19:24:25.155Z,997
2019-02-08T19:29:53.044Z,997
2019-02-08T19:35:22.010Z,997
2019-02-08T19:40:50.035Z,997
2019-02-08T19:46:18.033Z,997
2019-02-08T19:51:46.079Z,997
2019-02-08T19:57:14.076Z,997
2019-02-08T20:02:41.858Z,997
2019-02-08T20:08:11.059Z,997
2019-02-08T20:13:40.060Z,997
2019-02-08T20:19:07.840Z,996
2019-02-08T20:24:35.916Z,996
2019-02-08T20:30:04.883Z,996
2019-02-08T20:35:32.681Z,996
2019-02-08T20:41:01.712Z,996
2019-02-08T20:46:30.840Z,996
2019-02-08T20:51:59.686Z,996
2019-02-08T20:57:28.774Z,996
2019-02-08T21:02:56.588Z,996
2019-02-08T21:08:24.610Z,996
2019-02-08T21:13:52.576Z,996
2019-02-08T21:19:20.691Z,996
2019-02-08T21:24:48.531Z,996
2019-02-08T21:30:17.547Z,996
2019-02-08T21:35:46.479Z,996
2019-02-08T21:41:14.687Z,996
2019-02-08T21:46:42.517Z,996
2019-02-08T21:52:10.667Z,995
2019-02-08T21:57:39.677Z,995
2019-02-08T22:03:07.555Z,995
2019-02-08T22:08:36.529Z,995
2019-02-08T22:14:05.533Z,995
2019-02-08T22:19:33.530Z,995
2019-02-08T22:25:01.605Z,995
2019-02-08T22:30:29.503Z,995
2019-02-08T22:35:58.530Z,995
2019-02-08T22:41:27.618Z,995
2019-02-08T22:46:56.559Z,995
2019-02-08T22:52:24.461Z,995
2019-02-08T22:57:53.449Z,995
2019-02-08T23:03:21.431Z,995
2019-02-08T23:08:50.522Z,994
2019-02-08T23:14:19.529Z,994
2019-02-08T23:19:47.782Z,994
2019-02-08T23:25:16.678Z,994
2019-02-08T23:30:45.459Z,994
2019-02-08T23:36:14.593Z,994
2019-02-08T23:41:42.441Z,994
2019-02-08T23:47:11.544Z,994
2019-02-08T23:52:40.405Z,994
